Time;durP1;ratioP1;P1;durP2;ratioP2;P2;SDS_P1;SDS_P2;PMS_P1;PMS_P2;Temp;Humidity;BMP_temperature;BMP_pressure;BME280_temperature;BME280_humidity;BME280_pressure;Samples;Min_cycle;Max_cycle;Signal;HPM_P1;HPM_P2
2023/11/15 00:01:42;;;;;;;17.40;8.30;;;;;;;7.06;75.91;100264.92;107526;1251;98421;-61
2023/11/15 00:04:12;;;;;;;18.80;8.40;;;;;;;7.05;75.88;100277.71;107530;1251;112111;-61
2023/11/15 00:06:40;;;;;;;18.50;8.00;;;;;;;7.02;75.73;100285.25;107587;1251;110281;-61
2023/11/15 00:09:09;;;;;;;18.80;8.70;;;;;;;7.01;75.88;100287.13;107506;1251;107908;-60
2023/11/15 00:11:37;;;;;;;21.30;7.80;;;;;;;7.02;75.91;100284.73;107587;1252;97815;-60
2023/11/15 00:14:06;;;;;;;19.60;7.60;;;;;;;6.98;75.46;100265.40;107637;1253;97890;-61
2023/11/15 00:16:34;;;;;;;18.30;9.00;;;;;;;6.97;75.53;100269.30;107638;1250;111510;-61
2023/11/15 00:19:03;;;;;;;17.20;8.50;;;;;;;6.97;75.87;100275.17;107591;1251;109574;-61
2023/11/15 00:21:31;;;;;;;17.80;8.10;;;;;;;6.98;76.09;100272.89;107560;1251;107825;-60
2023/11/15 00:24:01;;;;;;;18.40;7.80;;;;;;;6.98;75.82;100272.58;107532;1251;97921;-59
2023/11/15 00:26:29;;;;;;;12.20;7.00;;;;;;;6.98;75.85;100271.64;107610;1251;98454;-62
2023/11/15 00:28:58;;;;;;;17.40;7.60;;;;;;;7.00;76.05;100272.60;107531;1251;111918;-61
2023/11/15 00:31:26;;;;;;;17.00;8.10;;;;;;;7.01;76.12;100264.63;107652;1255;110006;-60
2023/11/15 00:33:54;;;;;;;19.50;8.60;;;;;;;7.03;76.29;100263.06;107616;1252;108503;-61
2023/11/15 00:36:23;;;;;;;16.20;7.90;;;;;;;7.04;76.23;100252.40;107601;1252;97918;-62
2023/11/15 00:38:51;;;;;;;16.40;7.20;;;;;;;7.10;76.49;100244.17;107502;1253;97934;-61
2023/11/15 00:41:20;;;;;;;17.60;7.70;;;;;;;7.13;76.60;100234.23;107507;1253;111909;-60
2023/11/15 00:43:48;;;;;;;16.20;7.50;;;;;;;7.16;76.53;100217.42;107436;1253;109410;-60
2023/11/15 00:46:17;;;;;;;18.40;7.00;;;;;;;7.17;76.50;100206.95;107633;1251;108595;-61
2023/11/15 00:48:46;;;;;;;15.80;7.20;;;;;;;7.18;76.37;100200.99;107570;1251;97853;-62
2023/11/15 00:51:14;;;;;;;15.90;7.60;;;;;;;7.16;76.35;100198.67;107677;1250;97720;-61
2023/11/15 00:53:43;;;;;;;27.60;8.50;;;;;;;7.17;76.48;100201.25;107547;1253;111947;-63
2023/11/15 00:56:12;;;;;;;14.30;7.30;;;;;;;7.18;76.55;100209.74;107661;1251;109890;-63
2023/11/15 00:58:41;;;;;;;20.90;8.00;;;;;;;7.18;76.30;100214.04;107613;1251;107449;-62
2023/11/15 01:01:10;;;;;;;18.60;7.70;;;;;;;7.18;76.39;100213.33;107672;1254;97932;-61
2023/11/15 01:03:45;;;;;;;16.20;7.40;;;;;;;7.19;76.30;100213.39;107637;1251;98364;-62
2023/11/15 01:06:14;;;;;;;20.30;7.80;;;;;;;7.20;76.53;100209.92;107609;1251;111966;-61
2023/11/15 01:08:42;;;;;;;18.90;7.50;;;;;;;7.23;76.66;100215.13;107537;1251;109061;-61
2023/11/15 01:11:10;;;;;;;17.40;7.20;;;;;;;7.25;76.64;100220.06;107606;1253;107915;-61
2023/11/15 01:13:38;;;;;;;19.80;7.70;;;;;;;7.27;76.81;100216.47;107574;1250;97914;-60
2023/11/15 01:16:07;;;;;;;16.70;7.70;;;;;;;7.30;76.82;100207.52;107607;1252;97731;-60
2023/11/15 01:18:36;;;;;;;13.20;7.50;;;;;;;7.31;76.68;100214.73;107650;1253;110388;-63
2023/11/15 01:21:08;;;;;;;14.70;7.00;;;;;;;7.32;76.60;100216.09;107633;1251;109196;-60
2023/11/15 01:23:38;;;;;;;14.10;7.90;;;;;;;7.30;76.48;100217.83;107592;1251;108298;-60
2023/11/15 01:26:07;;;;;;;25.50;8.40;;;;;;;7.28;76.60;100219.86;107644;1251;97843;-61
2023/11/15 01:28:35;;;;;;;20.70;7.30;;;;;;;7.26;76.57;100228.55;107603;1251;97736;-61
2023/11/15 01:31:04;;;;;;;31.60;8.10;;;;;;;7.25;76.51;100231.48;107638;1251;111756;-61
2023/11/15 01:33:32;;;;;;;32.90;8.00;;;;;;;7.24;76.61;100231.04;107582;1255;110040;-62
2023/11/15 01:36:00;;;;;;;20.20;7.40;;;;;;;7.24;76.77;100225.54;107601;1251;109793;-63
2023/11/15 01:38:29;;;;;;;18.40;7.30;;;;;;;7.25;76.57;100209.22;107593;1253;97853;-61
2023/11/15 01:40:59;;;;;;;13.30;7.10;;;;;;;7.25;76.65;100213.28;107478;1251;97779;-60
2023/11/15 01:43:28;;;;;;;25.90;8.00;;;;;;;7.27;76.64;100218.81;107477;1253;112001;-61
2023/11/15 01:45:57;;;;;;;23.20;7.80;;;;;;;7.29;76.79;100215.52;107627;1253;110204;-60
2023/11/15 01:48:25;;;;;;;18.00;7.20;;;;;;;7.31;76.81;100216.55;107580;1251;109057;-61
2023/11/15 01:50:54;;;;;;;17.40;7.70;;;;;;;7.33;77.00;100214.77;107525;1252;99208;-61
2023/11/15 01:53:24;;;;;;;11.80;6.90;;;;;;;7.34;76.87;100210.78;107524;1252;97919;-62
2023/11/15 01:55:53;;;;;;;12.30;7.00;;;;;;;7.34;77.09;100220.04;107556;1255;111150;-62
2023/11/15 01:58:25;;;;;;;15.90;7.20;;;;;;;7.33;76.90;100215.81;107575;1251;109952;-62
2023/11/15 02:00:54;;;;;;;18.00;7.20;;;;;;;7.31;76.85;100204.20;107576;1251;105782;-61
2023/11/15 02:03:23;;;;;;;16.20;6.60;;;;;;;7.30;76.96;100203.40;107510;1255;97923;-61
2023/11/15 02:05:52;;;;;;;18.30;7.10;;;;;;;7.27;77.11;100207.60;107576;1252;97839;-60
2023/11/15 02:08:21;;;;;;;18.60;7.80;;;;;;;7.24;77.00;100211.64;107634;1255;111353;-60
2023/11/15 02:10:49;;;;;;;15.80;6.70;;;;;;;7.25;77.10;100213.33;107680;1251;109200;-60
2023/11/15 02:13:26;;;;;;;12.80;7.80;;;;;;;7.25;77.25;100214.18;107576;1251;107127;-60
2023/11/15 02:15:57;;;;;;;20.90;6.90;;;;;;;7.27;77.20;100215.11;107605;1251;97830;-61
2023/11/15 02:18:26;;;;;;;13.20;6.60;;;;;;;7.28;77.12;100207.38;107613;1251;98360;-60
2023/11/15 02:20:55;;;;;;;12.90;7.90;;;;;;;7.28;77.28;100191.95;107558;1251;111959;-61
2023/11/15 02:23:24;;;;;;;15.40;7.70;;;;;;;7.28;77.18;100185.73;107524;1253;109668;-60
2023/11/15 02:25:53;;;;;;;13.40;8.00;;;;;;;7.28;77.25;100186.99;107436;1252;106980;-60
2023/11/15 02:28:21;;;;;;;13.70;7.40;;;;;;;7.29;77.43;100188.50;107610;1251;97884;-60
2023/11/15 02:30:49;;;;;;;16.50;8.10;;;;;;;7.34;77.54;100194.65;107540;1251;97701;-61
2023/11/15 02:33:17;;;;;;;16.20;7.20;;;;;;;7.39;77.71;100193.89;107512;1253;111783;-61
2023/11/15 02:35:46;;;;;;;21.50;8.30;;;;;;;7.42;77.79;100194.17;107589;1251;108813;-62
2023/11/15 02:38:15;;;;;;;16.60;8.30;;;;;;;7.45;77.72;100193.40;107575;1253;107521;-60
2023/11/15 02:40:44;;;;;;;18.90;8.00;;;;;;;7.49;77.92;100189.88;107601;1255;97923;-60
2023/11/15 02:43:13;;;;;;;16.60;7.70;;;;;;;7.54;77.88;100184.83;107572;1253;97944;-61
2023/11/15 02:45:42;;;;;;;15.60;7.70;;;;;;;7.58;77.90;100186.27;107633;1251;111822;-60
2023/11/15 02:48:10;;;;;;;13.90;7.50;;;;;;;7.60;77.80;100185.40;107381;1251;108474;-61
2023/11/15 02:50:39;;;;;;;19.10;8.00;;;;;;;7.62;77.82;100187.17;107641;1251;107765;-62
2023/11/15 02:53:08;;;;;;;13.60;6.90;;;;;;;7.64;77.84;100188.98;107602;1251;97805;-60
2023/11/15 02:55:36;;;;;;;15.20;8.00;;;;;;;7.67;77.93;100184.23;107589;1253;97721;-61
2023/11/15 02:58:05;;;;;;;18.70;9.90;;;;;;;7.69;77.92;100187.80;107591;1251;112283;-62
2023/11/15 03:00:34;;;;;;;31.10;13.30;;;;;;;7.72;77.90;100198.14;107616;1252;110587;-61
2023/11/15 03:03:04;;;;;;;36.00;12.70;;;;;;;7.72;77.60;100195.96;107622;1251;107192;-61
2023/11/15 03:05:33;;;;;;;26.70;12.40;;;;;;;7.70;77.62;100198.85;107549;1251;97840;-60
2023/11/15 03:08:01;;;;;;;29.40;12.40;;;;;;;7.71;77.83;100203.02;107667;1251;98372;-61
2023/11/15 03:10:29;;;;;;;22.10;12.10;;;;;;;7.73;77.87;100201.02;107646;1251;110786;-61
2023/11/15 03:12:58;;;;;;;21.80;10.70;;;;;;;7.76;77.90;100197.90;107617;1251;109571;-60
2023/11/15 03:15:26;;;;;;;21.90;11.30;;;;;;;7.79;77.95;100199.30;107537;1253;107705;-62
2023/11/15 03:17:54;;;;;;;19.10;10.40;;;;;;;7.84;78.37;100197.64;107552;1253;97819;-62
2023/11/15 03:20:23;;;;;;;22.30;10.10;;;;;;;7.89;78.18;100202.06;107463;1252;98501;-61
2023/11/15 03:22:52;;;;;;;22.60;11.00;;;;;;;7.90;78.42;100202.77;107599;1251;111747;-60
2023/11/15 03:25:21;;;;;;;19.50;9.50;;;;;;;7.91;78.29;100202.41;107631;1255;109214;-60
2023/11/15 03:27:51;;;;;;;24.00;9.70;;;;;;;7.89;78.25;100199.33;107576;1255;107242;-60
2023/11/15 03:30:19;;;;;;;16.30;9.30;;;;;;;7.89;78.26;100204.14;107634;1252;97823;-60
2023/11/15 03:32:48;;;;;;;18.10;8.60;;;;;;;7.89;78.29;100203.45;107604;1252;97953;-60
2023/11/15 03:35:20;;;;;;;16.60;8.70;;;;;;;7.88;78.27;100203.39;107593;1252;111969;-61
2023/11/15 03:37:49;;;;;;;20.60;8.50;;;;;;;7.82;78.33;100204.36;107579;1253;109981;-60
2023/11/15 03:40:19;;;;;;;15.60;9.80;;;;;;;7.76;78.12;100201.70;107540;1253;108135;-60
2023/11/15 03:42:48;;;;;;;20.20;9.80;;;;;;;7.75;78.71;100198.74;107523;1253;97850;-62
2023/11/15 03:45:16;;;;;;;15.50;9.00;;;;;;;7.71;78.47;100194.43;107568;1253;97711;-64
2023/11/15 03:47:45;;;;;;;18.30;9.20;;;;;;;7.70;78.73;100198.27;107583;1252;111867;-60
2023/11/15 03:50:14;;;;;;;18.50;9.20;;;;;;;7.71;79.08;100201.40;107570;1253;108968;-60
2023/11/15 03:52:42;;;;;;;19.30;8.90;;;;;;;7.70;78.98;100202.97;107509;1255;108498;-61
2023/11/15 03:55:10;;;;;;;21.30;9.90;;;;;;;7.70;79.04;100207.42;107491;1255;97838;-60
2023/11/15 03:57:39;;;;;;;14.60;8.80;;;;;;;7.71;79.10;100206.02;107614;1253;97825;-62
2023/11/15 04:00:10;;;;;;;22.20;10.00;;;;;;;7.72;79.23;100203.51;107605;1253;111873;-61
2023/11/15 04:02:41;;;;;;;15.50;9.60;;;;;;;7.71;79.26;100205.48;107466;1252;109480;-60
2023/11/15 04:05:09;;;;;;;17.60;10.00;;;;;;;7.73;79.23;100206.06;107601;1255;106017;-61
2023/11/15 04:07:39;;;;;;;16.00;9.60;;;;;;;7.74;79.55;100207.93;107562;1253;97837;-60
2023/11/15 04:10:09;;;;;;;19.60;8.70;;;;;;;7.76;79.50;100205.60;107676;1251;97695;-60
2023/11/15 04:12:37;;;;;;;18.30;8.50;;;;;;;7.76;79.64;100197.03;107687;1251;111259;-60
2023/11/15 04:15:08;;;;;;;16.30;8.40;;;;;;;7.76;79.72;100192.55;107604;1252;109675;-61
2023/11/15 04:17:38;;;;;;;16.10;8.90;;;;;;;7.74;79.86;100185.64;107629;1251;106582;-60
2023/11/15 04:20:08;;;;;;;15.50;8.90;;;;;;;7.76;80.02;100184.38;107637;1251;97775;-61
2023/11/15 04:22:36;;;;;;;16.60;8.70;;;;;;;7.76;80.22;100194.52;107618;1253;97786;-59
2023/11/15 04:25:05;;;;;;;16.90;8.40;;;;;;;7.76;80.46;100192.80;107527;1253;111844;-61
2023/11/15 04:27:33;;;;;;;12.90;8.20;;;;;;;7.73;80.26;100187.34;107574;1253;108941;-61
2023/11/15 04:30:02;;;;;;;20.50;9.80;;;;;;;7.73;80.60;100187.65;107483;1253;107478;-61
2023/11/15 04:32:30;;;;;;;14.10;8.30;;;;;;;7.74;80.87;100190.61;107543;1253;97849;-61
2023/11/15 04:34:59;;;;;;;13.20;8.10;;;;;;;7.77;81.09;100196.61;107608;1253;97874;-61
2023/11/15 04:37:28;;;;;;;13.90;8.50;;;;;;;7.79;81.25;100205.55;107572;1251;112135;-61
2023/11/15 04:39:56;;;;;;;15.00;6.80;;;;;;;7.78;81.21;100201.88;107655;1251;109614;-61
2023/11/15 04:42:25;;;;;;;10.90;7.00;;;;;;;7.83;81.09;100219.80;107517;1256;107928;-61
2023/11/15 04:44:53;;;;;;;22.30;8.90;;;;;;;7.88;81.06;100223.89;107619;1252;97860;-61
2023/11/15 04:47:22;;;;;;;14.20;8.50;;;;;;;7.92;81.33;100224.98;107582;1255;97781;-61
2023/11/15 04:49:50;;;;;;;14.10;8.50;;;;;;;7.95;81.42;100224.52;107605;1253;112317;-60
2023/11/15 04:52:18;;;;;;;17.10;7.60;;;;;;;7.99;81.53;100216.84;107506;1252;110973;-60
2023/11/15 04:54:47;;;;;;;21.60;8.80;;;;;;;8.03;81.53;100210.81;107539;1252;107796;-60
2023/11/15 04:57:19;;;;;;;13.30;7.70;;;;;;;8.06;81.73;100208.94;107576;1253;97837;-61
2023/11/15 04:59:50;;;;;;;16.00;8.90;;;;;;;8.08;81.75;100203.05;107500;1252;98042;-60
2023/11/15 05:02:18;;;;;;;14.40;8.50;;;;;;;8.09;81.80;100192.98;107573;1253;112506;-61
2023/11/15 05:04:46;;;;;;;22.80;9.60;;;;;;;8.08;81.93;100180.52;107534;1253;109176;-60
2023/11/15 05:07:19;;;;;;;22.50;9.40;;;;;;;8.09;81.86;100180.65;107572;1251;107502;-62
2023/11/15 05:09:47;;;;;;;17.40;7.90;;;;;;;8.09;81.91;100178.13;107622;1251;97894;-61
2023/11/15 05:12:16;;;;;;;13.90;7.90;;;;;;;8.09;82.14;100178.66;107586;1253;97740;-60
2023/11/15 05:14:44;;;;;;;11.00;6.00;;;;;;;8.09;82.32;100188.63;107592;1251;111851;-59
2023/11/15 05:17:12;;;;;;;12.00;6.80;;;;;;;8.08;82.23;100188.62;107600;1251;108877;-61
2023/11/15 05:19:40;;;;;;;15.30;5.90;;;;;;;8.07;82.73;100193.29;107616;1253;107429;-61
2023/11/15 05:22:09;;;;;;;17.10;7.80;;;;;;;8.10;82.91;100197.86;107526;1253;97836;-60
2023/11/15 05:24:37;;;;;;;13.90;7.60;;;;;;;8.13;82.85;100199.89;107575;1253;97729;-61
2023/11/15 05:27:06;;;;;;;10.50;6.40;;;;;;;8.15;82.67;100204.36;107556;1253;111853;-61
2023/11/15 05:29:34;;;;;;;19.50;8.40;;;;;;;8.18;82.81;100194.87;107590;1251;110128;-61
2023/11/15 05:32:02;;;;;;;12.00;6.10;;;;;;;8.23;82.89;100194.65;107552;1253;109311;-62
2023/11/15 05:34:30;;;;;;;12.90;6.00;;;;;;;8.25;83.06;100197.05;107601;1253;97942;-60
2023/11/15 05:36:58;;;;;;;14.10;5.70;;;;;;;8.27;83.14;100197.86;107525;1253;98327;-62
2023/11/15 05:39:27;;;;;;;14.90;6.30;;;;;;;8.28;83.15;100192.34;107555;1253;110806;-61
2023/11/15 05:41:55;;;;;;;14.00;5.30;;;;;;;8.32;83.15;100195.45;107639;1251;110143;-62
2023/11/15 05:44:23;;;;;;;14.30;6.30;;;;;;;8.31;83.05;100191.92;107542;1253;107110;-61
2023/11/15 05:46:51;;;;;;;11.70;5.30;;;;;;;8.31;83.14;100192.80;107528;1254;97833;-61
2023/11/15 05:49:20;;;;;;;9.70;5.50;;;;;;;8.34;83.21;100193.66;107539;1252;97828;-60
2023/11/15 05:51:48;;;;;;;9.30;5.90;;;;;;;8.34;83.22;100179.49;107550;1253;110768;-62
2023/11/15 05:54:16;;;;;;;14.10;6.10;;;;;;;8.35;83.09;100189.42;107561;1253;108730;-60
2023/11/15 05:56:48;;;;;;;11.90;6.70;;;;;;;8.37;83.40;100198.72;107560;1255;108257;-61
2023/11/15 05:59:17;;;;;;;14.50;5.00;;;;;;;8.41;83.57;100194.77;107600;1256;96547;-60
2023/11/15 06:01:45;;;;;;;10.90;5.60;;;;;;;8.42;83.42;100196.11;107598;1253;97704;-62
2023/11/15 06:04:13;;;;;;;13.40;5.70;;;;;;;8.42;83.36;100196.80;107583;1253;111187;-60
2023/11/15 06:06:41;;;;;;;13.30;5.30;;;;;;;8.43;83.48;100198.37;107542;1253;108910;-61
2023/11/15 06:09:17;;;;;;;17.20;6.50;;;;;;;8.45;83.76;100208.20;107525;1252;107556;-60
2023/11/15 06:11:45;;;;;;;9.00;5.10;;;;;;;8.45;83.74;100213.56;107555;1253;97916;-61
2023/11/15 06:14:15;;;;;;;12.50;5.60;;;;;;;8.49;83.88;100213.27;107520;1253;98371;-61
2023/11/15 06:16:44;;;;;;;12.10;5.60;;;;;;;8.51;83.80;100208.44;107572;1253;112137;-61
2023/11/15 06:19:12;;;;;;;15.20;5.40;;;;;;;8.55;83.97;100199.30;107564;1253;109572;-61
2023/11/15 06:21:44;;;;;;;7.90;5.60;;;;;;;8.61;84.01;100202.52;107573;1251;108818;-62
2023/11/15 06:24:13;;;;;;;11.40;5.80;;;;;;;8.67;84.11;100196.14;107621;1253;97829;-62
2023/11/15 06:26:43;;;;;;;14.90;5.90;;;;;;;8.72;84.35;100195.09;107611;1251;97713;-62
2023/11/15 06:29:11;;;;;;;15.60;5.10;;;;;;;8.76;84.26;100194.77;107509;1251;111513;-61
2023/11/15 06:31:39;;;;;;;14.50;7.30;;;;;;;8.80;84.30;100189.39;107543;1253;108439;-61
2023/11/15 06:34:08;;;;;;;12.60;7.10;;;;;;;8.86;84.37;100197.09;107511;1253;108836;-61
2023/11/15 06:36:39;;;;;;;18.20;7.30;;;;;;;8.91;84.25;100200.95;107584;1251;97902;-61
2023/11/15 06:39:12;;;;;;;12.70;6.50;;;;;;;8.93;84.17;100195.73;107575;1255;97938;-62
2023/11/15 06:41:41;;;;;;;11.80;7.20;;;;;;;8.97;84.20;100186.95;107573;1253;110512;-62
2023/11/15 06:44:09;;;;;;;14.30;6.60;;;;;;;9.04;84.27;100182.78;107555;1253;110024;-60
2023/11/15 06:46:38;;;;;;;11.60;5.40;;;;;;;9.11;84.18;100188.45;107595;1251;107548;-61
2023/11/15 06:49:10;;;;;;;14.60;6.50;;;;;;;9.15;84.20;100187.90;107556;1250;97835;-61
2023/11/15 06:51:47;;;;;;;6.90;3.70;;;;;;;9.19;84.03;100181.36;107634;1251;97713;-61
2023/11/15 06:54:16;;;;;;;22.90;4.70;;;;;;;9.22;84.07;100166.95;107587;1251;111668;-61
2023/11/15 06:56:48;;;;;;;19.00;8.40;;;;;;;9.26;83.61;100155.02;107619;1251;109801;-62
2023/11/15 06:59:17;;;;;;;12.80;8.80;;;;;;;9.30;83.56;100160.48;107514;1253;108143;-62
2023/11/15 07:01:48;;;;;;;32.20;14.10;;;;;;;9.34;83.72;100176.06;107545;1255;98202;-62
2023/11/15 07:04:17;;;;;;;13.10;5.80;;;;;;;9.36;83.86;100174.44;107565;1253;98364;-62
2023/11/15 07:06:46;;;;;;;9.60;5.30;;;;;;;9.40;83.82;100154.39;107569;1253;111012;-61
2023/11/15 07:09:24;;;;;;;9.90;4.30;;;;;;;9.46;83.87;100144.07;107611;1251;110168;-62
2023/11/15 07:11:52;;;;;;;9.80;4.90;;;;;;;9.52;83.97;100142.56;107541;1255;108613;-60
2023/11/15 07:14:20;;;;;;;19.40;8.10;;;;;;;9.57;84.25;100154.30;107555;1253;97840;-62
2023/11/15 07:16:55;;;;;;;7.10;5.20;;;;;;;9.62;84.29;100161.52;107599;1253;97711;-61
2023/11/15 07:19:25;;;;;;;8.60;4.90;;;;;;;9.66;84.23;100165.21;107636;1251;112143;-61
2023/11/15 07:21:54;;;;;;;12.60;4.70;;;;;;;9.71;84.21;100166.23;107679;1253;108672;-61
2023/11/15 07:24:23;;;;;;;6.30;3.80;;;;;;;9.78;84.36;100167.93;107636;1251;107917;-61
2023/11/15 07:26:51;;;;;;;10.00;4.60;;;;;;;9.82;84.04;100163.39;107583;1253;97919;-61
2023/11/15 07:29:20;;;;;;;8.30;4.00;;;;;;;9.89;83.89;100161.50;107577;1254;97698;-61
2023/11/15 07:31:52;;;;;;;8.70;4.60;;;;;;;9.95;83.86;100161.29;107581;1254;112209;-61
2023/11/15 07:34:22;;;;;;;13.90;5.40;;;;;;;9.99;83.99;100149.62;107526;1253;108460;-61
2023/11/15 07:36:53;;;;;;;11.90;3.80;;;;;;;10.01;83.69;100148.98;107573;1255;107740;-61
2023/11/15 07:39:24;;;;;;;12.50;4.60;;;;;;;10.04;83.36;100152.50;107624;1256;97930;-62
2023/11/15 07:41:57;;;;;;;12.60;4.70;;;;;;;10.10;83.35;100159.45;107638;1251;97708;-61
2023/11/15 07:44:25;;;;;;;16.30;5.60;;;;;;;10.12;83.10;100165.67;107605;1253;111588;-60
2023/11/15 07:46:58;;;;;;;16.60;4.60;;;;;;;10.17;82.92;100156.14;107545;1256;109655;-60
2023/11/15 07:49:28;;;;;;;11.00;4.80;;;;;;;10.22;82.90;100152.20;107549;1253;108229;-61
2023/11/15 07:51:57;;;;;;;12.10;5.80;;;;;;;10.26;82.56;100153.09;107516;1256;97833;-61
2023/11/15 07:54:25;;;;;;;9.40;4.10;;;;;;;10.27;82.40;100150.23;107660;1256;98368;-61
2023/11/15 07:56:53;;;;;;;12.40;4.40;;;;;;;10.30;82.21;100147.45;107608;1251;112376;-61
2023/11/15 07:59:22;;;;;;;11.40;5.00;;;;;;;10.38;82.24;100141.35;107565;1251;110103;-61
2023/11/15 08:01:51;;;;;;;17.70;4.20;;;;;;;10.47;82.19;100135.48;107526;1255;108702;-62
2023/11/15 08:04:21;;;;;;;17.60;5.30;;;;;;;10.55;81.88;100129.01;107507;1255;97901;-61
2023/11/15 08:06:50;;;;;;;14.10;5.70;;;;;;;10.69;81.71;100123.27;107544;1253;97823;-61
2023/11/15 08:09:24;;;;;;;12.30;6.40;;;;;;;10.87;81.40;100112.13;107492;1253;111023;-61
2023/11/15 08:11:55;;;;;;;9.30;5.40;;;;;;;11.04;81.31;100111.40;107581;1251;110172;-61
2023/11/15 08:14:25;;;;;;;19.50;5.90;;;;;;;11.21;81.47;100107.36;107639;1253;108113;-61
2023/11/15 08:16:54;;;;;;;7.20;4.40;;;;;;;11.37;81.13;100108.35;107556;1253;97856;-62
2023/11/15 08:19:23;;;;;;;10.40;4.10;;;;;;;11.50;79.94;100105.24;107551;1254;97815;-61
2023/11/15 08:21:56;;;;;;;6.50;3.80;;;;;;;11.62;78.66;100100.86;107489;1253;110308;-61
2023/11/15 08:24:26;;;;;;;7.00;4.20;;;;;;;11.77;78.78;100096.03;107641;1251;109895;-61
2023/11/15 08:26:55;;;;;;;5.20;3.10;;;;;;;11.89;78.69;100091.52;107599;1254;107437;-62
2023/11/15 08:29:24;;;;;;;7.60;3.70;;;;;;;12.03;78.46;100090.52;107592;1251;97837;-62
2023/11/15 08:31:53;;;;;;;7.10;3.20;;;;;;;12.27;78.02;100089.58;107583;1252;98370;-62
2023/11/15 08:34:21;;;;;;;8.60;3.20;;;;;;;12.70;77.01;100089.44;107520;1254;111210;-62
2023/11/15 08:36:51;;;;;;;8.40;2.60;;;;;;;13.30;75.06;100086.91;107626;1250;109587;-61
2023/11/15 08:39:22;;;;;;;8.10;2.10;;;;;;;14.16;73.87;100084.10;107532;1255;107371;-61
2023/11/15 08:41:51;;;;;;;6.10;2.20;;;;;;;15.13;72.34;100084.10;107605;1251;98585;-62
2023/11/15 08:44:19;;;;;;;7.30;2.40;;;;;;;15.85;70.94;100081.59;107595;1253;98444;-61
2023/11/15 08:46:50;;;;;;;7.30;2.10;;;;;;;16.18;68.23;100075.33;107628;1251;111443;-61
2023/11/15 08:49:20;;;;;;;4.50;2.00;;;;;;;16.11;67.24;100072.74;107566;1251;109693;-61
2023/11/15 08:51:50;;;;;;;1.90;1.40;;;;;;;16.10;65.80;100071.44;107572;1253;108243;-61
2023/11/15 08:54:20;;;;;;;5.90;1.50;;;;;;;16.09;62.04;100075.14;107578;1251;97844;-62
2023/11/15 08:56:50;;;;;;;3.60;1.60;;;;;;;15.78;63.10;100075.27;107452;1257;99540;-62
2023/11/15 08:59:23;;;;;;;6.20;2.20;;;;;;;15.75;64.08;100075.17;107615;1253;112103;-63
2023/11/15 09:01:54;;;;;;;4.50;1.50;;;;;;;15.73;61.20;100077.27;107617;1254;109793;-63
2023/11/15 09:04:22;;;;;;;2.00;1.30;;;;;;;15.55;61.08;100082.48;107634;1251;106957;-61
2023/11/15 09:06:52;;;;;;;7.10;2.00;;;;;;;15.30;60.47;100079.52;107661;1251;97851;-61
2023/11/15 09:09:21;;;;;;;3.10;1.60;;;;;;;15.10;59.91;100083.02;107557;1251;97872;-62
2023/11/15 09:11:51;;;;;;;3.40;1.50;;;;;;;14.86;60.32;100078.06;107512;1257;112093;-61
2023/11/15 09:14:21;;;;;;;3.00;1.90;;;;;;;14.70;60.09;100070.70;107611;1252;109491;-62
2023/11/15 09:16:50;;;;;;;3.20;1.70;;;;;;;14.60;60.81;100065.77;107601;1255;108639;-61
2023/11/15 09:19:20;;;;;;;2.80;2.20;;;;;;;14.60;61.97;100063.16;107597;1256;97854;-61
2023/11/15 09:21:51;;;;;;;6.70;2.30;;;;;;;14.67;62.68;100059.86;107613;1251;97714;-62
2023/11/15 09:24:21;;;;;;;6.50;1.90;;;;;;;14.76;62.77;100052.83;107622;1251;111836;-61
2023/11/15 09:26:51;;;;;;;7.00;2.00;;;;;;;14.96;62.62;100049.83;107632;1251;110230;-62
2023/11/15 09:29:20;;;;;;;7.20;2.20;;;;;;;15.40;62.36;100048.69;107516;1254;107140;-62
2023/11/15 09:31:49;;;;;;;10.90;2.30;;;;;;;15.76;62.06;100044.06;107598;1256;97828;-62
2023/11/15 09:34:19;;;;;;;7.30;2.20;;;;;;;16.74;61.50;100035.56;107653;1251;97713;-62
2023/11/15 09:36:47;;;;;;;6.80;3.20;;;;;;;18.12;60.24;100032.15;107609;1256;111679;-62
2023/11/15 09:39:16;;;;;;;3.70;2.00;;;;;;;19.31;55.60;100032.08;107616;1251;109688;-62
2023/11/15 09:41:53;;;;;;;5.90;1.90;;;;;;;19.50;53.76;100023.61;107661;1251;108365;-62
2023/11/15 09:44:24;;;;;;;9.60;3.80;;;;;;;19.59;53.52;100020.33;107603;1254;98411;-62
2023/11/15 09:46:56;;;;;;;6.80;4.30;;;;;;;20.23;50.42;100015.25;107597;1254;98402;-61
2023/11/15 09:49:26;;;;;;;5.10;2.50;;;;;;;21.13;51.55;100015.33;107593;1254;112195;-62
2023/11/15 09:51:55;;;;;;;13.20;2.30;;;;;;;22.13;49.72;100013.60;107594;1254;109243;-62
2023/11/15 09:54:24;;;;;;;5.40;2.00;;;;;;;22.67;47.55;100011.38;107581;1257;108311;-61
2023/11/15 09:56:52;;;;;;;7.30;1.80;;;;;;;22.85;47.60;100011.94;107552;1255;97820;-62
2023/11/15 09:59:22;;;;;;;5.70;1.80;;;;;;;22.90;45.81;100009.20;107560;1253;97795;-62
2023/11/15 10:01:51;;;;;;;4.50;1.90;;;;;;;22.93;44.16;100008.46;107489;1251;111685;-62
2023/11/15 10:04:24;;;;;;;6.60;2.70;;;;;;;22.80;42.98;100009.12;107596;1255;108958;-61
2023/11/15 10:06:55;;;;;;;;;;;;;;;22.68;44.30;100005.17;107605;1251;106733;-62
2023/11/15 10:09:42;;;;;;;5.20;2.20;;;;;;;22.06;41.74;100011.92;107513;1256;97868;-61
2023/11/15 10:12:11;;;;;;;5.40;2.10;;;;;;;21.22;40.84;100020.96;107186;1251;455267;-62
2023/11/15 10:14:52;;;;;;;5.80;1.80;;;;;;;20.51;41.70;100018.96;107591;1251;111921;-62
2023/11/15 10:17:42;;;;;;;4.00;2.00;;;;;;;19.81;42.11;100019.11;107640;1256;108241;-62
2023/11/15 10:20:25;;;;;;;4.50;1.90;;;;;;;19.05;44.16;100016.55;107561;1255;107708;-62
2023/11/15 10:22:55;;;;;;;7.00;1.70;;;;;;;18.43;45.23;100015.36;107589;1256;97819;-62
2023/11/15 10:25:27;;;;;;;6.10;2.30;;;;;;;17.94;46.49;100010.55;107627;1253;97689;-61
2023/11/15 10:28:06;;;;;;;5.50;2.00;;;;;;;17.57;47.11;100006.89;107623;1256;112028;-63
2023/11/15 10:30:34;;;;;;;4.30;1.90;;;;;;;17.25;48.03;100008.50;107578;1256;109028;-61
2023/11/15 10:33:10;;;;;;;5.20;2.10;;;;;;;17.15;47.81;99998.70;107563;1256;108010;-61
2023/11/15 10:35:40;;;;;;;7.70;2.20;;;;;;;17.02;48.47;99989.66;107578;1254;97714;-61
2023/11/15 10:38:18;;;;;;;8.20;3.70;;;;;;;17.02;48.64;99983.68;107574;1257;98465;-62
2023/11/15 10:40:49;;;;;;;7.80;2.00;;;;;;;17.08;49.15;99974.45;107521;1256;112018;-62
2023/11/15 10:43:19;;;;;;;5.00;1.70;;;;;;;17.17;49.39;99972.67;107574;1251;109972;-62
2023/11/15 10:45:50;;;;;;;5.00;2.10;;;;;;;17.36;49.02;99970.02;107615;1251;106935;-61
2023/11/15 10:48:22;;;;;;;3.00;1.30;;;;;;;17.83;48.02;99975.38;107581;1251;97849;-60
2023/11/15 10:50:57;;;;;;;2.30;1.20;;;;;;;18.02;46.27;99977.40;107598;1251;97825;-62
2023/11/15 10:53:30;;;;;;;2.50;1.50;;;;;;;17.94;46.91;99974.84;107495;1254;110877;-62
2023/11/15 10:55:59;;;;;;;2.90;1.40;;;;;;;17.90;46.46;99971.27;107569;1254;108743;-62
2023/11/15 10:58:30;;;;;;;7.10;1.50;;;;;;;17.77;46.87;99971.64;107555;1251;108306;-62
2023/11/15 11:01:01;;;;;;;5.90;1.50;;;;;;;17.60;47.27;99970.63;107615;1254;97913;-61
2023/11/15 11:03:30;;;;;;;2.20;1.30;;;;;;;17.45;47.51;99971.27;107644;1251;97853;-61
2023/11/15 11:06:16;;;;;;;6.50;1.70;;;;;;;17.39;47.60;99969.86;107638;1255;110578;-62
2023/11/15 11:09:09;;;;;;;6.50;1.70;;;;;;;17.35;47.96;99973.30;107634;1251;110167;-62
2023/11/15 11:12:05;;;;;;;6.60;1.10;;;;;;;17.18;47.65;99977.10;107560;1254;108609;-63
2023/11/15 11:14:34;;;;;;;5.90;1.90;;;;;;;16.93;47.65;99972.48;107605;1251;97849;-61
2023/11/15 11:17:02;;;;;;;3.10;1.50;;;;;;;16.77;47.96;99974.76;107651;1251;97820;-62
2023/11/15 11:19:41;;;;;;;7.10;1.70;;;;;;;16.62;48.68;99976.95;107545;1254;110448;-62
2023/11/15 11:22:12;;;;;;;4.40;1.50;;;;;;;16.47;49.29;99977.52;107622;1254;109040;-62
2023/11/15 11:24:48;;;;;;;7.80;2.10;;;;;;;16.37;49.72;99969.45;107629;1254;108690;-61